LHSM Airport Information

Runway Information
Runway 16 Length 8202 ft width 197 ft
Elevation 408 ft Threshold 0 ft Heading 165
Runway 34 Length 8202 ft Width 197 ft
Elevation 399 ft Threshold 0 ft Heading 345
Runway 17R Length 3100 ft width 212 ft
Elevation 0 ft Threshold 0 ft Heading 167
Runway 35L Length 3100 ft Width 212 ft
Elevation 0 ft Threshold 0 ft Heading 347
Airport Frequencies
Type AFIS Name INFO Frequency 127.6 MHZ
Type TWR Name TWR Frequency 127.6 MHZ
Airport Navaids
Type NDB Name Sarmellek Frequency 428 KHZ
Airport Weather Information & NOTAM
ADDS - METARS form results

(0519 UTC 19 June 2019)
Data provider http://aviationweather.gov/metar/data/
 
METAR text: LHSM 190445Z AUTO 00000KT 7000 NSC 20/19 Q1014
Conditions at: LHSM (BALATON , HU) observed 0445 UTC 19 June 2019
Temperature: 20.0°C (68°F)
Dewpoint: 19.0°C (66°F) [RH = 94%]
Pressure (altimeter): 29.94 inches Hg (1014.0 mb)
Winds: calm
Visibility: 4 miles ( 7 km)
Ceiling: at least 12,000 feet AGL
Clouds: sky clear below 12,000 feet AGL
Weather: no significant weather observed at this time